sensor_id;sensor_type;location;lat;lon;timestamp;P1;durP1;ratioP1;P2;durP2;ratioP2
12788;SDS011;6458;42.710;23.192;2024-01-11T00:04:06;64.57;;;30.80;;
12788;SDS011;6458;42.710;23.192;2024-01-11T00:06:35;44.22;;;22.77;;
12788;SDS011;6458;42.710;23.192;2024-01-11T00:09:08;53.33;;;26.92;;
12788;SDS011;6458;42.710;23.192;2024-01-11T00:11:35;58.80;;;27.77;;
12788;SDS011;6458;42.710;23.192;2024-01-11T00:14:02;90.20;;;40.45;;
12788;SDS011;6458;42.710;23.192;2024-01-11T00:16:29;76.80;;;36.10;;
12788;SDS011;6458;42.710;23.192;2024-01-11T00:18:56;135.73;;;58.35;;
12788;SDS011;6458;42.710;23.192;2024-01-11T00:21:23;71.47;;;34.78;;
12788;SDS011;6458;42.710;23.192;2024-01-11T00:23:50;93.93;;;43.08;;
12788;SDS011;6458;42.710;23.192;2024-01-11T00:26:18;73.55;;;32.17;;
12788;SDS011;6458;42.710;23.192;2024-01-11T00:28:45;57.83;;;28.83;;
12788;SDS011;6458;42.710;23.192;2024-01-11T00:31:12;44.90;;;24.10;;
12788;SDS011;6458;42.710;23.192;2024-01-11T00:33:42;51.35;;;27.15;;
12788;SDS011;6458;42.710;23.192;2024-01-11T00:36:09;38.20;;;21.38;;
12788;SDS011;6458;42.710;23.192;2024-01-11T00:38:36;38.03;;;20.50;;
12788;SDS011;6458;42.710;23.192;2024-01-11T00:41:03;37.88;;;22.50;;
12788;SDS011;6458;42.710;23.192;2024-01-11T00:43:31;30.80;;;17.90;;
12788;SDS011;6458;42.710;23.192;2024-01-11T00:45:58;38.10;;;21.35;;
12788;SDS011;6458;42.710;23.192;2024-01-11T00:48:25;29.67;;;18.10;;
12788;SDS011;6458;42.710;23.192;2024-01-11T00:50:52;36.78;;;19.88;;
12788;SDS011;6458;42.710;23.192;2024-01-11T00:53:19;29.35;;;17.65;;
12788;SDS011;6458;42.710;23.192;2024-01-11T00:55:46;39.70;;;20.23;;
12788;SDS011;6458;42.710;23.192;2024-01-11T00:58:13;31.33;;;16.48;;
12788;SDS011;6458;42.710;23.192;2024-01-11T01:00:42;31.77;;;16.30;;
12788;SDS011;6458;42.710;23.192;2024-01-11T01:03:09;29.13;;;15.25;;
12788;SDS011;6458;42.710;23.192;2024-01-11T01:05:35;32.35;;;18.38;;
12788;SDS011;6458;42.710;23.192;2024-01-11T01:08:03;44.60;;;20.83;;
12788;SDS011;6458;42.710;23.192;2024-01-11T01:10:30;27.83;;;16.20;;
12788;SDS011;6458;42.710;23.192;2024-01-11T01:13:00;30.42;;;15.70;;
12788;SDS011;6458;42.710;23.192;2024-01-11T01:15:27;23.58;;;14.43;;
12788;SDS011;6458;42.710;23.192;2024-01-11T01:17:56;23.13;;;14.65;;
12788;SDS011;6458;42.710;23.192;2024-01-11T01:20:23;24.48;;;15.35;;
12788;SDS011;6458;42.710;23.192;2024-01-11T01:22:50;26.05;;;14.30;;
12788;SDS011;6458;42.710;23.192;2024-01-11T01:25:17;22.00;;;14.52;;
12788;SDS011;6458;42.710;23.192;2024-01-11T01:27:43;23.02;;;14.75;;
12788;SDS011;6458;42.710;23.192;2024-01-11T01:30:10;26.70;;;15.52;;
12788;SDS011;6458;42.710;23.192;2024-01-11T01:32:38;22.77;;;15.10;;
12788;SDS011;6458;42.710;23.192;2024-01-11T01:35:06;28.33;;;15.27;;
12788;SDS011;6458;42.710;23.192;2024-01-11T01:37:33;27.38;;;15.07;;
12788;SDS011;6458;42.710;23.192;2024-01-11T01:40:00;26.10;;;15.50;;
12788;SDS011;6458;42.710;23.192;2024-01-11T01:42:27;26.13;;;16.90;;
12788;SDS011;6458;42.710;23.192;2024-01-11T01:44:54;21.15;;;14.90;;
12788;SDS011;6458;42.710;23.192;2024-01-11T01:47:21;23.75;;;14.75;;
12788;SDS011;6458;42.710;23.192;2024-01-11T01:49:49;23.55;;;15.00;;
12788;SDS011;6458;42.710;23.192;2024-01-11T01:52:18;23.98;;;15.13;;
12788;SDS011;6458;42.710;23.192;2024-01-11T01:54:46;22.45;;;15.65;;
12788;SDS011;6458;42.710;23.192;2024-01-11T01:57:16;22.70;;;14.73;;
12788;SDS011;6458;42.710;23.192;2024-01-11T01:59:45;23.52;;;15.70;;
12788;SDS011;6458;42.710;23.192;2024-01-11T02:02:14;25.75;;;15.95;;
12788;SDS011;6458;42.710;23.192;2024-01-11T02:04:45;22.48;;;15.98;;
12788;SDS011;6458;42.710;23.192;2024-01-11T02:07:12;22.92;;;15.07;;
12788;SDS011;6458;42.710;23.192;2024-01-11T02:09:41;21.08;;;14.23;;
12788;SDS011;6458;42.710;23.192;2024-01-11T02:12:09;22.02;;;15.13;;
12788;SDS011;6458;42.710;23.192;2024-01-11T02:14:38;23.65;;;14.35;;
12788;SDS011;6458;42.710;23.192;2024-01-11T02:17:05;28.77;;;15.30;;
12788;SDS011;6458;42.710;23.192;2024-01-11T02:19:32;27.67;;;16.48;;
12788;SDS011;6458;42.710;23.192;2024-01-11T02:22:00;27.75;;;16.05;;
12788;SDS011;6458;42.710;23.192;2024-01-11T02:24:36;26.92;;;16.35;;
12788;SDS011;6458;42.710;23.192;2024-01-11T02:27:03;31.05;;;16.70;;
12788;SDS011;6458;42.710;23.192;2024-01-11T02:29:31;31.17;;;16.80;;
12788;SDS011;6458;42.710;23.192;2024-01-11T02:31:58;32.70;;;19.40;;
12788;SDS011;6458;42.710;23.192;2024-01-11T02:34:28;34.03;;;18.13;;
12788;SDS011;6458;42.710;23.192;2024-01-11T02:36:55;33.20;;;18.92;;
12788;SDS011;6458;42.710;23.192;2024-01-11T02:39:23;25.42;;;15.70;;
12788;SDS011;6458;42.710;23.192;2024-01-11T02:41:54;30.45;;;16.90;;
12788;SDS011;6458;42.710;23.192;2024-01-11T02:44:22;28.58;;;16.95;;
12788;SDS011;6458;42.710;23.192;2024-01-11T02:46:52;24.42;;;14.77;;
12788;SDS011;6458;42.710;23.192;2024-01-11T02:49:18;28.20;;;15.90;;
12788;SDS011;6458;42.710;23.192;2024-01-11T02:51:45;21.98;;;14.05;;
12788;SDS011;6458;42.710;23.192;2024-01-11T02:54:12;23.98;;;15.98;;
12788;SDS011;6458;42.710;23.192;2024-01-11T02:56:39;27.38;;;15.75;;
12788;SDS011;6458;42.710;23.192;2024-01-11T02:59:08;27.50;;;15.52;;
12788;SDS011;6458;42.710;23.192;2024-01-11T03:01:35;26.10;;;15.25;;
12788;SDS011;6458;42.710;23.192;2024-01-11T03:04:02;25.45;;;15.73;;
12788;SDS011;6458;42.710;23.192;2024-01-11T03:06:30;24.50;;;14.70;;
12788;SDS011;6458;42.710;23.192;2024-01-11T03:08:57;16.25;;;11.98;;
12788;SDS011;6458;42.710;23.192;2024-01-11T03:11:24;18.20;;;10.75;;
12788;SDS011;6458;42.710;23.192;2024-01-11T03:13:51;18.70;;;11.88;;
12788;SDS011;6458;42.710;23.192;2024-01-11T03:16:22;19.15;;;13.82;;
12788;SDS011;6458;42.710;23.192;2024-01-11T03:18:49;17.35;;;12.25;;
12788;SDS011;6458;42.710;23.192;2024-01-11T03:21:16;18.73;;;12.55;;
12788;SDS011;6458;42.710;23.192;2024-01-11T03:23:43;21.20;;;14.18;;
12788;SDS011;6458;42.710;23.192;2024-01-11T03:26:13;17.45;;;13.10;;
12788;SDS011;6458;42.710;23.192;2024-01-11T03:28:40;18.08;;;13.40;;
12788;SDS011;6458;42.710;23.192;2024-01-11T03:31:07;56.10;;;26.85;;
12788;SDS011;6458;42.710;23.192;2024-01-11T03:33:36;41.33;;;22.73;;
12788;SDS011;6458;42.710;23.192;2024-01-11T03:36:06;55.30;;;27.35;;
12788;SDS011;6458;42.710;23.192;2024-01-11T03:38:34;30.27;;;18.23;;
12788;SDS011;6458;42.710;23.192;2024-01-11T03:41:01;25.35;;;15.90;;
12788;SDS011;6458;42.710;23.192;2024-01-11T03:43:28;28.77;;;16.40;;
12788;SDS011;6458;42.710;23.192;2024-01-11T03:45:55;20.92;;;13.15;;
12788;SDS011;6458;42.710;23.192;2024-01-11T03:48:22;20.13;;;13.65;;
12788;SDS011;6458;42.710;23.192;2024-01-11T03:50:50;20.83;;;13.10;;
12788;SDS011;6458;42.710;23.192;2024-01-11T03:53:17;21.67;;;14.00;;
12788;SDS011;6458;42.710;23.192;2024-01-11T03:55:44;20.88;;;13.98;;
12788;SDS011;6458;42.710;23.192;2024-01-11T03:58:11;34.88;;;20.52;;
12788;SDS011;6458;42.710;23.192;2024-01-11T04:00:39;38.25;;;23.77;;
12788;SDS011;6458;42.710;23.192;2024-01-11T04:03:06;25.45;;;17.25;;
12788;SDS011;6458;42.710;23.192;2024-01-11T04:05:33;28.25;;;17.80;;
12788;SDS011;6458;42.710;23.192;2024-01-11T04:08:04;30.42;;;19.05;;
12788;SDS011;6458;42.710;23.192;2024-01-11T04:10:32;29.58;;;17.50;;
12788;SDS011;6458;42.710;23.192;2024-01-11T04:12:59;25.15;;;17.17;;
12788;SDS011;6458;42.710;23.192;2024-01-11T04:15:26;32.92;;;21.15;;
12788;SDS011;6458;42.710;23.192;2024-01-11T04:17:53;28.40;;;17.65;;
12788;SDS011;6458;42.710;23.192;2024-01-11T04:20:20;27.48;;;17.30;;
12788;SDS011;6458;42.710;23.192;2024-01-11T04:22:48;27.27;;;17.35;;
12788;SDS011;6458;42.710;23.192;2024-01-11T04:25:17;42.83;;;23.65;;
12788;SDS011;6458;42.710;23.192;2024-01-11T04:27:45;50.97;;;28.60;;
12788;SDS011;6458;42.710;23.192;2024-01-11T04:30:12;40.10;;;22.02;;
12788;SDS011;6458;42.710;23.192;2024-01-11T04:32:39;25.52;;;18.60;;
12788;SDS011;6458;42.710;23.192;2024-01-11T04:35:06;31.67;;;20.08;;
12788;SDS011;6458;42.710;23.192;2024-01-11T04:37:34;31.33;;;22.67;;
12788;SDS011;6458;42.710;23.192;2024-01-11T04:40:01;35.72;;;23.38;;
12788;SDS011;6458;42.710;23.192;2024-01-11T04:42:30;35.78;;;24.48;;
12788;SDS011;6458;42.710;23.192;2024-01-11T04:44:57;36.25;;;25.17;;
12788;SDS011;6458;42.710;23.192;2024-01-11T04:47:24;42.33;;;30.08;;
12788;SDS011;6458;42.710;23.192;2024-01-11T04:49:51;34.88;;;22.25;;
12788;SDS011;6458;42.710;23.192;2024-01-11T04:52:18;29.13;;;19.92;;
12788;SDS011;6458;42.710;23.192;2024-01-11T04:54:46;27.70;;;19.45;;
12788;SDS011;6458;42.710;23.192;2024-01-11T04:57:13;35.08;;;21.75;;
12788;SDS011;6458;42.710;23.192;2024-01-11T05:06:18;36.88;;;27.02;;
12788;SDS011;6458;42.710;23.192;2024-01-11T05:08:45;36.15;;;26.48;;
12788;SDS011;6458;42.710;23.192;2024-01-11T05:11:16;25.95;;;20.73;;
12788;SDS011;6458;42.710;23.192;2024-01-11T05:13:43;24.52;;;16.20;;
12788;SDS011;6458;42.710;23.192;2024-01-11T05:16:19;25.05;;;16.52;;
12788;SDS011;6458;42.710;23.192;2024-01-11T05:18:50;29.98;;;16.92;;
12788;SDS011;6458;42.710;23.192;2024-01-11T05:21:18;24.00;;;15.43;;
12788;SDS011;6458;42.710;23.192;2024-01-11T05:23:46;23.63;;;14.77;;
12788;SDS011;6458;42.710;23.192;2024-01-11T05:26:14;25.00;;;15.75;;
12788;SDS011;6458;42.710;23.192;2024-01-11T05:28:44;35.17;;;20.75;;
12788;SDS011;6458;42.710;23.192;2024-01-11T05:31:11;34.33;;;20.38;;
12788;SDS011;6458;42.710;23.192;2024-01-11T05:33:42;33.92;;;18.70;;
12788;SDS011;6458;42.710;23.192;2024-01-11T05:36:09;40.42;;;23.00;;
12788;SDS011;6458;42.710;23.192;2024-01-11T05:38:39;40.00;;;24.02;;
12788;SDS011;6458;42.710;23.192;2024-01-11T05:41:06;65.72;;;31.23;;
12788;SDS011;6458;42.710;23.192;2024-01-11T05:43:33;35.08;;;21.38;;
12788;SDS011;6458;42.710;23.192;2024-01-11T05:46:00;36.67;;;19.27;;
12788;SDS011;6458;42.710;23.192;2024-01-11T05:48:27;22.92;;;15.23;;
12788;SDS011;6458;42.710;23.192;2024-01-11T05:50:54;26.13;;;14.15;;
12788;SDS011;6458;42.710;23.192;2024-01-11T05:53:21;22.98;;;15.18;;
12788;SDS011;6458;42.710;23.192;2024-01-11T05:55:51;24.08;;;16.25;;
12788;SDS011;6458;42.710;23.192;2024-01-11T05:58:18;27.95;;;18.48;;
12788;SDS011;6458;42.710;23.192;2024-01-11T06:00:45;37.78;;;19.90;;
12788;SDS011;6458;42.710;23.192;2024-01-11T06:03:12;25.42;;;17.67;;
12788;SDS011;6458;42.710;23.192;2024-01-11T06:05:39;33.10;;;18.98;;
12788;SDS011;6458;42.710;23.192;2024-01-11T06:08:06;25.27;;;14.85;;
12788;SDS011;6458;42.710;23.192;2024-01-11T06:10:33;36.08;;;22.35;;
12788;SDS011;6458;42.710;23.192;2024-01-11T06:13:01;60.60;;;30.23;;
12788;SDS011;6458;42.710;23.192;2024-01-11T06:15:28;59.40;;;31.48;;
12788;SDS011;6458;42.710;23.192;2024-01-11T06:17:55;45.08;;;24.85;;
12788;SDS011;6458;42.710;23.192;2024-01-11T06:20:22;29.75;;;17.52;;
12788;SDS011;6458;42.710;23.192;2024-01-11T06:22:49;16.65;;;10.73;;
12788;SDS011;6458;42.710;23.192;2024-01-11T06:25:16;18.83;;;13.38;;
12788;SDS011;6458;42.710;23.192;2024-01-11T06:27:46;20.27;;;12.27;;
12788;SDS011;6458;42.710;23.192;2024-01-11T06:30:15;20.92;;;12.65;;
12788;SDS011;6458;42.710;23.192;2024-01-11T06:32:42;29.85;;;13.07;;
12788;SDS011;6458;42.710;23.192;2024-01-11T06:35:09;23.15;;;13.73;;
12788;SDS011;6458;42.710;23.192;2024-01-11T06:37:36;20.65;;;14.27;;
12788;SDS011;6458;42.710;23.192;2024-01-11T06:40:03;20.73;;;14.20;;
12788;SDS011;6458;42.710;23.192;2024-01-11T06:42:33;23.00;;;14.80;;
12788;SDS011;6458;42.710;23.192;2024-01-11T06:45:00;40.80;;;20.02;;
12788;SDS011;6458;42.710;23.192;2024-01-11T06:47:30;31.60;;;17.73;;
12788;SDS011;6458;42.710;23.192;2024-01-11T06:49:57;32.42;;;16.77;;
12788;SDS011;6458;42.710;23.192;2024-01-11T06:52:24;35.55;;;18.30;;
12788;SDS011;6458;42.710;23.192;2024-01-11T06:54:51;41.60;;;20.17;;
12788;SDS011;6458;42.710;23.192;2024-01-11T06:57:18;41.20;;;18.60;;
12788;SDS011;6458;42.710;23.192;2024-01-11T06:59:46;25.20;;;16.48;;
12788;SDS011;6458;42.710;23.192;2024-01-11T07:02:13;27.75;;;14.90;;
12788;SDS011;6458;42.710;23.192;2024-01-11T07:04:44;21.98;;;14.75;;
12788;SDS011;6458;42.710;23.192;2024-01-11T07:07:11;22.25;;;15.63;;
12788;SDS011;6458;42.710;23.192;2024-01-11T07:09:38;23.15;;;15.93;;
12788;SDS011;6458;42.710;23.192;2024-01-11T07:12:05;25.60;;;17.52;;
12788;SDS011;6458;42.710;23.192;2024-01-11T07:14:35;30.08;;;18.23;;
12788;SDS011;6458;42.710;23.192;2024-01-11T07:17:02;23.33;;;17.15;;
12788;SDS011;6458;42.710;23.192;2024-01-11T07:19:29;24.83;;;15.85;;
12788;SDS011;6458;42.710;23.192;2024-01-11T07:21:58;22.33;;;15.45;;
12788;SDS011;6458;42.710;23.192;2024-01-11T07:24:25;20.90;;;15.07;;
12788;SDS011;6458;42.710;23.192;2024-01-11T07:26:52;22.70;;;14.85;;
12788;SDS011;6458;42.710;23.192;2024-01-11T07:29:21;22.27;;;15.60;;
12788;SDS011;6458;42.710;23.192;2024-01-11T07:31:48;23.90;;;15.95;;
12788;SDS011;6458;42.710;23.192;2024-01-11T07:34:15;25.48;;;17.27;;
12788;SDS011;6458;42.710;23.192;2024-01-11T07:36:42;24.55;;;18.52;;
12788;SDS011;6458;42.710;23.192;2024-01-11T07:39:13;30.00;;;21.85;;
12788;SDS011;6458;42.710;23.192;2024-01-11T07:41:40;28.63;;;19.73;;
12788;SDS011;6458;42.710;23.192;2024-01-11T07:44:08;33.63;;;21.85;;
12788;SDS011;6458;42.710;23.192;2024-01-11T07:46:35;23.40;;;17.33;;
12788;SDS011;6458;42.710;23.192;2024-01-11T07:49:04;21.30;;;14.52;;
12788;SDS011;6458;42.710;23.192;2024-01-11T07:51:31;10.15;;;9.05;;
12788;SDS011;6458;42.710;23.192;2024-01-11T07:53:59;12.05;;;7.55;;
12788;SDS011;6458;42.710;23.192;2024-01-11T07:56:29;12.05;;;7.63;;
12788;SDS011;6458;42.710;23.192;2024-01-11T07:58:56;15.27;;;8.75;;
12788;SDS011;6458;42.710;23.192;2024-01-11T08:01:23;8.13;;;7.05;;
12788;SDS011;6458;42.710;23.192;2024-01-11T08:03:53;10.25;;;8.45;;
12788;SDS011;6458;42.710;23.192;2024-01-11T08:06:23;13.25;;;9.43;;
12788;SDS011;6458;42.710;23.192;2024-01-11T08:08:51;14.25;;;9.88;;
12788;SDS011;6458;42.710;23.192;2024-01-11T08:11:18;16.58;;;10.50;;
12788;SDS011;6458;42.710;23.192;2024-01-11T08:13:46;16.90;;;12.05;;
12788;SDS011;6458;42.710;23.192;2024-01-11T08:16:16;18.83;;;11.98;;
12788;SDS011;6458;42.710;23.192;2024-01-11T08:18:44;19.65;;;11.82;;
12788;SDS011;6458;42.710;23.192;2024-01-11T08:21:11;16.58;;;11.07;;
12788;SDS011;6458;42.710;23.192;2024-01-11T08:23:39;12.52;;;10.63;;
12788;SDS011;6458;42.710;23.192;2024-01-11T08:26:10;20.40;;;12.48;;
12788;SDS011;6458;42.710;23.192;2024-01-11T08:28:39;25.27;;;15.68;;
12788;SDS011;6458;42.710;23.192;2024-01-11T08:31:07;26.77;;;14.00;;
12788;SDS011;6458;42.710;23.192;2024-01-11T08:33:34;27.58;;;15.65;;
12788;SDS011;6458;42.710;23.192;2024-01-11T08:36:02;31.30;;;17.05;;
12788;SDS011;6458;42.710;23.192;2024-01-11T08:38:30;22.10;;;13.70;;
12788;SDS011;6458;42.710;23.192;2024-01-11T08:40:57;30.10;;;19.00;;
12788;SDS011;6458;42.710;23.192;2024-01-11T08:43:25;20.85;;;14.65;;
12788;SDS011;6458;42.710;23.192;2024-01-11T08:45:54;28.90;;;15.70;;
12788;SDS011;6458;42.710;23.192;2024-01-11T08:48:22;29.23;;;17.00;;
12788;SDS011;6458;42.710;23.192;2024-01-11T08:50:49;29.55;;;16.50;;
12788;SDS011;6458;42.710;23.192;2024-01-11T08:53:16;22.08;;;13.02;;
12788;SDS011;6458;42.710;23.192;2024-01-11T08:55:43;20.13;;;14.48;;
12788;SDS011;6458;42.710;23.192;2024-01-11T08:58:10;19.63;;;12.75;;
12788;SDS011;6458;42.710;23.192;2024-01-11T09:00:37;23.80;;;14.30;;
12788;SDS011;6458;42.710;23.192;2024-01-11T09:03:04;24.15;;;16.48;;
12788;SDS011;6458;42.710;23.192;2024-01-11T09:05:32;26.60;;;15.27;;
12788;SDS011;6458;42.710;23.192;2024-01-11T09:07:59;20.80;;;13.65;;
12788;SDS011;6458;42.710;23.192;2024-01-11T09:10:26;39.50;;;17.33;;
12788;SDS011;6458;42.710;23.192;2024-01-11T09:12:53;37.58;;;17.45;;
12788;SDS011;6458;42.710;23.192;2024-01-11T09:15:21;25.48;;;17.38;;
12788;SDS011;6458;42.710;23.192;2024-01-11T09:17:48;24.73;;;15.88;;
12788;SDS011;6458;42.710;23.192;2024-01-11T09:20:15;20.10;;;11.88;;
12788;SDS011;6458;42.710;23.192;2024-01-11T09:22:45;17.85;;;10.70;;
12788;SDS011;6458;42.710;23.192;2024-01-11T09:25:12;19.98;;;12.00;;
12788;SDS011;6458;42.710;23.192;2024-01-11T09:27:39;21.30;;;12.77;;
12788;SDS011;6458;42.710;23.192;2024-01-11T09:30:07;22.67;;;14.40;;
12788;SDS011;6458;42.710;23.192;2024-01-11T09:32:35;27.47;;;15.00;;
12788;SDS011;6458;42.710;23.192;2024-01-11T09:35:02;26.93;;;14.73;;
12788;SDS011;6458;42.710;23.192;2024-01-11T09:37:29;22.07;;;15.00;;
12788;SDS011;6458;42.710;23.192;2024-01-11T09:39:58;23.43;;;15.80;;
12788;SDS011;6458;42.710;23.192;2024-01-11T09:42:27;22.63;;;14.17;;
12788;SDS011;6458;42.710;23.192;2024-01-11T09:44:55;21.37;;;13.37;;
12788;SDS011;6458;42.710;23.192;2024-01-11T09:47:23;27.93;;;16.37;;
12788;SDS011;6458;42.710;23.192;2024-01-11T09:49:53;22.20;;;15.13;;
12788;SDS011;6458;42.710;23.192;2024-01-11T09:52:21;32.20;;;17.53;;
12788;SDS011;6458;42.710;23.192;2024-01-11T09:54:50;21.03;;;13.60;;
12788;SDS011;6458;42.710;23.192;2024-01-11T09:57:21;23.90;;;12.60;;
12788;SDS011;6458;42.710;23.192;2024-01-11T09:59:50;22.57;;;12.00;;
12788;SDS011;6458;42.710;23.192;2024-01-11T10:02:21;21.70;;;14.10;;
12788;SDS011;6458;42.710;23.192;2024-01-11T10:04:49;19.73;;;11.40;;
12788;SDS011;6458;42.710;23.192;2024-01-11T10:07:17;21.20;;;13.70;;
12788;SDS011;6458;42.710;23.192;2024-01-11T10:09:46;16.47;;;12.70;;
12788;SDS011;6458;42.710;23.192;2024-01-11T10:12:13;13.57;;;9.97;;
12788;SDS011;6458;42.710;23.192;2024-01-11T10:14:41;17.60;;;11.80;;
12788;SDS011;6458;42.710;23.192;2024-01-11T10:17:08;15.70;;;9.48;;
12788;SDS011;6458;42.710;23.192;2024-01-11T10:19:35;21.23;;;12.00;;
12788;SDS011;6458;42.710;23.192;2024-01-11T10:22:02;11.60;;;9.43;;
12788;SDS011;6458;42.710;23.192;2024-01-11T10:24:30;21.37;;;11.20;;
12788;SDS011;6458;42.710;23.192;2024-01-11T10:26:57;19.17;;;12.27;;
12788;SDS011;6458;42.710;23.192;2024-01-11T10:29:30;21.43;;;10.00;;
12788;SDS011;6458;42.710;23.192;2024-01-11T10:31:58;17.27;;;11.03;;
12788;SDS011;6458;42.710;23.192;2024-01-11T10:34:25;23.73;;;12.63;;
12788;SDS011;6458;42.710;23.192;2024-01-11T10:36:53;23.10;;;12.27;;
12788;SDS011;6458;42.710;23.192;2024-01-11T10:39:20;18.37;;;10.63;;
12788;SDS011;6458;42.710;23.192;2024-01-11T10:41:51;25.03;;;13.00;;
12788;SDS011;6458;42.710;23.192;2024-01-11T10:44:26;18.17;;;12.43;;
12788;SDS011;6458;42.710;23.192;2024-01-11T10:47:02;18.60;;;12.17;;
12788;SDS011;6458;42.710;23.192;2024-01-11T10:49:30;17.77;;;12.67;;
12788;SDS011;6458;42.710;23.192;2024-01-11T10:52:00;21.77;;;11.93;;
12788;SDS011;6458;42.710;23.192;2024-01-11T10:54:29;31.13;;;17.67;;
12788;SDS011;6458;42.710;23.192;2024-01-11T10:56:58;36.07;;;21.97;;
12788;SDS011;6458;42.710;23.192;2024-01-11T10:59:26;17.87;;;11.23;;
12788;SDS011;6458;42.710;23.192;2024-01-11T11:01:53;17.77;;;10.60;;
12788;SDS011;6458;42.710;23.192;2024-01-11T11:04:24;16.10;;;10.57;;
12788;SDS011;6458;42.710;23.192;2024-01-11T11:06:54;17.77;;;13.03;;
12788;SDS011;6458;42.710;23.192;2024-01-11T11:09:23;20.57;;;11.47;;
12788;SDS011;6458;42.710;23.192;2024-01-11T11:11:53;13.07;;;8.63;;
12788;SDS011;6458;42.710;23.192;2024-01-11T11:14:22;9.63;;;6.70;;
12788;SDS011;6458;42.710;23.192;2024-01-11T11:16:50;10.70;;;7.93;;
12788;SDS011;6458;42.710;23.192;2024-01-11T11:19:19;11.80;;;9.70;;
12788;SDS011;6458;42.710;23.192;2024-01-11T11:21:48;8.50;;;7.10;;
12788;SDS011;6458;42.710;23.192;2024-01-11T11:24:16;15.10;;;8.33;;
12788;SDS011;6458;42.710;23.192;2024-01-11T11:26:43;9.17;;;7.63;;
12788;SDS011;6458;42.710;23.192;2024-01-11T11:29:10;8.10;;;6.73;;
12788;SDS011;6458;42.710;23.192;2024-01-11T11:31:38;8.37;;;6.80;;
12788;SDS011;6458;42.710;23.192;2024-01-11T11:34:10;5.50;;;4.93;;
12788;SDS011;6458;42.710;23.192;2024-01-11T11:36:39;7.90;;;5.87;;
12788;SDS011;6458;42.710;23.192;2024-01-11T11:39:09;5.27;;;4.77;;
12788;SDS011;6458;42.710;23.192;2024-01-11T11:41:37;5.30;;;4.80;;
12788;SDS011;6458;42.710;23.192;2024-01-11T11:44:05;5.17;;;4.67;;
12788;SDS011;6458;42.710;23.192;2024-01-11T11:46:32;5.47;;;4.97;;
12788;SDS011;6458;42.710;23.192;2024-01-11T11:49:00;5.47;;;4.83;;
12788;SDS011;6458;42.710;23.192;2024-01-11T11:51:26;4.77;;;4.47;;
12788;SDS011;6458;42.710;23.192;2024-01-11T11:53:54;4.90;;;4.10;;
12788;SDS011;6458;42.710;23.192;2024-01-11T11:56:23;4.07;;;3.67;;
12788;SDS011;6458;42.710;23.192;2024-01-11T11:58:50;4.17;;;3.87;;
12788;SDS011;6458;42.710;23.192;2024-01-11T12:01:20;4.43;;;4.03;;
12788;SDS011;6458;42.710;23.192;2024-01-11T12:03:47;5.00;;;4.50;;
12788;SDS011;6458;42.710;23.192;2024-01-11T12:06:15;4.57;;;4.27;;
12788;SDS011;6458;42.710;23.192;2024-01-11T12:08:43;3.80;;;3.50;;
12788;SDS011;6458;42.710;23.192;2024-01-11T12:11:12;5.67;;;5.10;;
12788;SDS011;6458;42.710;23.192;2024-01-11T12:13:42;4.00;;;3.70;;
12788;SDS011;6458;42.710;23.192;2024-01-11T12:16:10;4.20;;;3.80;;
12788;SDS011;6458;42.710;23.192;2024-01-11T12:18:37;4.10;;;3.80;;
12788;SDS011;6458;42.710;23.192;2024-01-11T12:21:04;4.40;;;4.10;;
12788;SDS011;6458;42.710;23.192;2024-01-11T12:23:33;5.10;;;4.53;;
12788;SDS011;6458;42.710;23.192;2024-01-11T12:26:00;5.27;;;3.23;;
12788;SDS011;6458;42.710;23.192;2024-01-11T12:28:29;4.30;;;3.90;;
12788;SDS011;6458;42.710;23.192;2024-01-11T12:30:59;3.63;;;3.43;;
12788;SDS011;6458;42.710;23.192;2024-01-11T12:33:26;4.37;;;4.07;;
12788;SDS011;6458;42.710;23.192;2024-01-11T12:35:55;3.97;;;3.67;;
12788;SDS011;6458;42.710;23.192;2024-01-11T12:38:23;4.03;;;3.73;;
12788;SDS011;6458;42.710;23.192;2024-01-11T12:40:50;5.07;;;4.57;;
12788;SDS011;6458;42.710;23.192;2024-01-11T12:43:17;4.27;;;3.90;;
12788;SDS011;6458;42.710;23.192;2024-01-11T12:45:45;5.63;;;4.23;;
12788;SDS011;6458;42.710;23.192;2024-01-11T12:48:13;5.40;;;4.90;;
12788;SDS011;6458;42.710;23.192;2024-01-11T12:50:41;5.23;;;4.33;;
12788;SDS011;6458;42.710;23.192;2024-01-11T12:53:09;5.10;;;4.60;;
12788;SDS011;6458;42.710;23.192;2024-01-11T12:55:43;5.33;;;4.30;;
12788;SDS011;6458;42.710;23.192;2024-01-11T12:58:10;5.47;;;4.97;;
12788;SDS011;6458;42.710;23.192;2024-01-11T13:00:37;4.50;;;4.10;;
12788;SDS011;6458;42.710;23.192;2024-01-11T13:03:05;5.87;;;4.90;;
12788;SDS011;6458;42.710;23.192;2024-01-11T13:05:34;5.17;;;4.73;;
12788;SDS011;6458;42.710;23.192;2024-01-11T13:08:03;4.97;;;4.57;;
12788;SDS011;6458;42.710;23.192;2024-01-11T13:10:34;4.53;;;4.23;;
12788;SDS011;6458;42.710;23.192;2024-01-11T13:13:02;5.00;;;4.60;;
12788;SDS011;6458;42.710;23.192;2024-01-11T13:15:30;4.77;;;4.37;;
12788;SDS011;6458;42.710;23.192;2024-01-11T13:17:57;4.83;;;4.43;;
12788;SDS011;6458;42.710;23.192;2024-01-11T13:20:24;5.83;;;5.27;;
12788;SDS011;6458;42.710;23.192;2024-01-11T13:23:00;4.67;;;4.27;;
12788;SDS011;6458;42.710;23.192;2024-01-11T13:25:38;4.63;;;4.30;;
12788;SDS011;6458;42.710;23.192;2024-01-11T13:28:05;4.43;;;4.07;;
12788;SDS011;6458;42.710;23.192;2024-01-11T13:30:32;4.00;;;3.63;;
12788;SDS011;6458;42.710;23.192;2024-01-11T13:32:59;4.40;;;4.00;;
12788;SDS011;6458;42.710;23.192;2024-01-11T13:35:26;4.87;;;4.47;;
12788;SDS011;6458;42.710;23.192;2024-01-11T13:37:55;4.00;;;3.70;;
12788;SDS011;6458;42.710;23.192;2024-01-11T13:40:22;4.70;;;4.27;;
12788;SDS011;6458;42.710;23.192;2024-01-11T13:42:50;4.97;;;4.57;;
12788;SDS011;6458;42.710;23.192;2024-01-11T13:45:17;4.73;;;4.37;;
12788;SDS011;6458;42.710;23.192;2024-01-11T13:47:44;4.27;;;3.87;;
12788;SDS011;6458;42.710;23.192;2024-01-11T13:50:11;5.03;;;4.13;;
12788;SDS011;6458;42.710;23.192;2024-01-11T13:52:39;4.90;;;4.47;;
12788;SDS011;6458;42.710;23.192;2024-01-11T13:55:08;3.97;;;3.70;;
12788;SDS011;6458;42.710;23.192;2024-01-11T13:57:36;4.43;;;4.03;;
12788;SDS011;6458;42.710;23.192;2024-01-11T14:00:03;5.83;;;4.97;;
12788;SDS011;6458;42.710;23.192;2024-01-11T14:02:32;5.40;;;4.90;;
12788;SDS011;6458;42.710;23.192;2024-01-11T14:05:00;5.23;;;4.77;;
12788;SDS011;6458;42.710;23.192;2024-01-11T14:07:28;6.03;;;5.00;;
12788;SDS011;6458;42.710;23.192;2024-01-11T14:09:56;6.57;;;4.50;;
12788;SDS011;6458;42.710;23.192;2024-01-11T14:12:24;7.27;;;4.60;;
12788;SDS011;6458;42.710;23.192;2024-01-11T14:14:53;5.23;;;4.73;;
12788;SDS011;6458;42.710;23.192;2024-01-11T14:17:19;4.67;;;4.13;;
12788;SDS011;6458;42.710;23.192;2024-01-11T14:19:48;4.53;;;4.23;;
12788;SDS011;6458;42.710;23.192;2024-01-11T14:22:15;4.87;;;4.10;;
12788;SDS011;6458;42.710;23.192;2024-01-11T14:24:44;4.37;;;3.83;;
12788;SDS011;6458;42.710;23.192;2024-01-11T14:27:11;4.23;;;3.83;;
12788;SDS011;6458;42.710;23.192;2024-01-11T14:29:40;4.73;;;4.33;;
12788;SDS011;6458;42.710;23.192;2024-01-11T14:32:07;5.73;;;4.73;;
12788;SDS011;6458;42.710;23.192;2024-01-11T14:34:36;4.23;;;3.73;;
12788;SDS011;6458;42.710;23.192;2024-01-11T14:37:04;4.70;;;4.30;;
12788;SDS011;6458;42.710;23.192;2024-01-11T14:39:33;4.60;;;4.20;;
12788;SDS011;6458;42.710;23.192;2024-01-11T14:42:00;4.57;;;4.10;;